Antares — DFJQ — position and weather

sailwx.info

Track history (hours):
 
Tides and Currents Weather Stations Pressure Air Temp Water Temp Dewpoint Dewpoint Depression Visibility Wind Speed Wind Dir Waves Ship Positions

Antares

Last reported at 2016-Oct-01 21:31 UTC. Time now 2016-Oct-01 22:23 UTC.
Position N 50°48' W 000°12'.

Length 79 m; draft 4.5 m.

Type: Ship. MMSI: 218777000.

Date/timePositionNaut miles runAvg speedWind from/ knotsBaromVisibWave heightAir tempDewpointWater temp
2016-Oct-01 21:31N 50°48' W 000°12'0 0.0
2016-Oct-01 20:31N 50°48' W 000°12'0 0.0
2016-Oct-01 15:31N 50°48' W 000°12'0 0.0
2016-Oct-01 14:31N 50°48' W 000°12'0 0.1
2016-Oct-01 13:31N 50°48' W 000°12'2 0.3
2016-Oct-01 04:31N 50°50' W 000°13'0 0.0
2016-Oct-01 03:31N 50°50' W 000°13'0 0.0
2016-Oct-01 00:25N 50°50' W 000°13'2 0.9
2016-Sep-30 22:33N 50°48' W 000°15'1 0.4
2016-Sep-30 20:33N 50°48' W 000°15'0 0.0
2016-Sep-30 17:33N 50°48' W 000°15'0 0.0
2016-Sep-30 16:33N 50°48' W 000°15'0 0.0
2016-Sep-30 14:33N 50°48' W 000°15'0 0.0
2016-Sep-30 13:33N 50°48' W 000°15'14 4.8
2016-Sep-30 10:33N 50°35' W 000°05'14 6.9
2016-Sep-30 08:34N 50°36' E 000°16'43 8.5
2016-Sep-30 03:33N 50°58' E 001°14'1010.0
2016-Sep-30 02:34N 51°04' E 001°26'21 7.2
2016-Sep-29 23:33N 51°20' E 001°49'16 8.0
2016-Sep-29 21:33N 51°33' E 002°04'11 9.5
2016-Sep-29 20:23N 51°41' E 002°16'69 5.7
2016-Sep-29 08:23N 52°30' E 003°34'5 5.7
2016-Sep-29 07:32N 52°31' E 003°42'35 5.1
2016-Sep-29 00:33N 52°27' E 004°40'5 1.7
2016-Sep-28 21:32N 52°25' E 004°47'0 0.0
2016-Sep-28 19:32N 52°25' E 004°47'0 0.0
2016-Sep-28 16:32N 52°25' E 004°47'0 0.0
2016-Sep-28 15:32N 52°25' E 004°47'0 0.0
2016-Sep-28 12:29N 52°25' E 004°47'0 0.0
2016-Sep-28 08:29N 52°25' E 004°47'0 0.0
2016-Sep-28 03:32N 52°25' E 004°47'0 0.0
2016-Sep-28 02:32N 52°25' E 004°47'0 0.0
2016-Sep-28 01:32N 52°25' E 004°47'0 0.0
2016-Sep-27 23:32N 52°25' E 004°47'13 3.3
2016-Sep-27 19:34N 52°28' E 004°26'36 6.7
2016-Sep-27 14:10N 53°03' E 004°11'5 7.8
2016-Sep-27 13:32N 53°06' E 004°18'118 9.1
2016-Sep-27 00:33N 53°58' E 007°16'4310.8
2016-Sep-26 20:33N 53°59' E 008°30'8 8.5
2016-Sep-26 19:33N 53°54' E 008°42'2 0.6
2016-Sep-26 15:33N 53°52' E 008°43'0 0.0
2016-Sep-26 13:33N 53°52' E 008°43'0 0.0
2016-Sep-26 11:33N 53°52' E 008°43'0 0.0
2016-Sep-26 08:33N 53°52' E 008°43'0 0.0
2016-Sep-26 02:30N 53°52' E 008°43'0 0.0
2016-Sep-26 01:33N 53°52' E 008°43'0 0.0
2016-Sep-26 00:33N 53°52' E 008°43'0 0.0
2016-Sep-25 21:33N 53°52' E 008°43'0 0.0
2016-Sep-25 17:30N 53°52' E 008°43'0 0.0
2016-Sep-25 16:33N 53°52' E 008°43'0 0.0
2016-Sep-25 15:33N 53°52' E 008°43'0 0.0
2016-Sep-25 14:33N 53°52' E 008°43'0 0.0
2016-Sep-25 12:33N 53°52' E 008°43'0 0.0
2016-Sep-25 11:33N 53°52' E 008°43'0 0.0
2016-Sep-25 10:33N 53°52' E 008°43'0 0.0
2016-Sep-25 09:33N 53°52' E 008°43'0 0.2
2016-Sep-25 07:33N 53°52' E 008°43'11 3.3
2016-Sep-25 04:19N 53°52' E 009°01'0 0.0
2016-Sep-25 00:31N 53°52' E 009°01'5 2.6
2016-Sep-24 22:33N 53°54' E 009°09'5 5.0
2016-Sep-24 21:33N 53°57' E 009°14'15 7.5
2016-Sep-24 19:32N 54°10' E 009°27'8 7.7
2016-Sep-24 18:32N 54°15' E 009°37'7 7.5
2016-Sep-24 17:33N 54°21' E 009°46'6 5.5
2016-Sep-24 16:33N 54°21' E 009°55'8 4.0
2016-Sep-24 14:33N 54°22' E 010°08'13 6.4
2016-Sep-24 12:33N 54°31' E 010°24'2010.0
2016-Sep-24 10:33N 54°36' E 010°57'9 8.9
2016-Sep-24 09:33N 54°35' E 011°13'53 7.3
2016-Sep-24 02:12N 54°57' E 012°37'610.0
2016-Sep-24 01:33N 55°04' E 012°38'1010.3
2016-Sep-24 00:33N 55°14' E 012°38'26 5.3
2016-Sep-23 19:31N 55°41' E 012°38'0 0.0
2016-Sep-23 17:31N 55°41' E 012°38'0 0.0
2016-Sep-23 16:31N 55°41' E 012°38'0 0.0
2016-Sep-23 15:31N 55°41' E 012°38'0 0.0
2016-Sep-23 13:31N 55°41' E 012°38'15 3.9
2016-Sep-23 09:33N 55°25' E 012°42'3110.3
2016-Sep-23 06:29N 54°54' E 012°44'18 9.0
2016-Sep-23 04:28N 54°39' E 012°27'9 9.8
2016-Sep-23 03:31N 54°32' E 012°16'9 9.3
2016-Sep-23 02:33N 54°25' E 012°07'1010.5
2016-Sep-23 01:33N 54°25' E 011°49'10 9.8
2016-Sep-23 00:33N 54°28' E 011°33'9 9.5
2016-Sep-22 23:33N 54°33' E 011°19'29 9.7
2016-Sep-22 20:33N 54°31' E 010°28'55 6.9
2016-Sep-22 12:33N 53°57' E 009°15'42 5.3
2016-Sep-22 04:33N 53°58' E 008°03'7 6.7
2016-Sep-22 03:33N 53°51' E 008°01'27 8.8
2016-Sep-22 00:33N 53°33' E 008°33'2 2.1
2016-Sep-21 23:33N 53°31' E 008°32'0 0.0
2016-Sep-21 22:33N 53°31' E 008°32'  
Track history (hours):
 
Tides and Currents Weather Stations Pressure Air Temp Water Temp Dewpoint Dewpoint Depression Visibility Wind Speed Wind Dir Waves Ship Positions

Antares

Last reported at 2016-Oct-01 21:31 UTC. Time now 2016-Oct-01 22:23 UTC.
Position N 50°48' W 000°12'.

Length 79 m; draft 4.5 m.

Type: Ship. MMSI: 218777000.

Date/timePositionNaut miles runAvg speedWind from/ knotsBaromVisibWave heightAir tempDewpointWater temp
2016-Oct-01 21:31N 50°48' W 000°12'0 0.0
2016-Oct-01 20:31N 50°48' W 000°12'0 0.0
2016-Oct-01 15:31N 50°48' W 000°12'0 0.0
2016-Oct-01 14:31N 50°48' W 000°12'0 0.1
2016-Oct-01 13:31N 50°48' W 000°12'2 0.3
2016-Oct-01 04:31N 50°50' W 000°13'0 0.0
2016-Oct-01 03:31N 50°50' W 000°13'0 0.0
2016-Oct-01 00:25N 50°50' W 000°13'2 0.9
2016-Sep-30 22:33N 50°48' W 000°15'1 0.4
2016-Sep-30 20:33N 50°48' W 000°15'0 0.0
2016-Sep-30 17:33N 50°48' W 000°15'0 0.0
2016-Sep-30 16:33N 50°48' W 000°15'0 0.0
2016-Sep-30 14:33N 50°48' W 000°15'0 0.0
2016-Sep-30 13:33N 50°48' W 000°15'14 4.8
2016-Sep-30 10:33N 50°35' W 000°05'14 6.9
2016-Sep-30 08:34N 50°36' E 000°16'43 8.5
2016-Sep-30 03:33N 50°58' E 001°14'1010.0
2016-Sep-30 02:34N 51°04' E 001°26'21 7.2
2016-Sep-29 23:33N 51°20' E 001°49'16 8.0
2016-Sep-29 21:33N 51°33' E 002°04'11 9.5
2016-Sep-29 20:23N 51°41' E 002°16'69 5.7
2016-Sep-29 08:23N 52°30' E 003°34'5 5.7
2016-Sep-29 07:32N 52°31' E 003°42'35 5.1
2016-Sep-29 00:33N 52°27' E 004°40'5 1.7
2016-Sep-28 21:32N 52°25' E 004°47'0 0.0
2016-Sep-28 19:32N 52°25' E 004°47'0 0.0
2016-Sep-28 16:32N 52°25' E 004°47'0 0.0
2016-Sep-28 15:32N 52°25' E 004°47'0 0.0
2016-Sep-28 12:29N 52°25' E 004°47'0 0.0
2016-Sep-28 08:29N 52°25' E 004°47'0 0.0
2016-Sep-28 03:32N 52°25' E 004°47'0 0.0
2016-Sep-28 02:32N 52°25' E 004°47'0 0.0
2016-Sep-28 01:32N 52°25' E 004°47'0 0.0
2016-Sep-27 23:32N 52°25' E 004°47'13 3.3
2016-Sep-27 19:34N 52°28' E 004°26'36 6.7
2016-Sep-27 14:10N 53°03' E 004°11'5 7.8
2016-Sep-27 13:32N 53°06' E 004°18'118 9.1
2016-Sep-27 00:33N 53°58' E 007°16'4310.8
2016-Sep-26 20:33N 53°59' E 008°30'8 8.5
2016-Sep-26 19:33N 53°54' E 008°42'2 0.6
2016-Sep-26 15:33N 53°52' E 008°43'0 0.0
2016-Sep-26 13:33N 53°52' E 008°43'0 0.0
2016-Sep-26 11:33N 53°52' E 008°43'0 0.0
2016-Sep-26 08:33N 53°52' E 008°43'0 0.0
2016-Sep-26 02:30N 53°52' E 008°43'0 0.0
2016-Sep-26 01:33N 53°52' E 008°43'0 0.0
2016-Sep-26 00:33N 53°52' E 008°43'0 0.0
2016-Sep-25 21:33N 53°52' E 008°43'0 0.0
2016-Sep-25 17:30N 53°52' E 008°43'0 0.0
2016-Sep-25 16:33N 53°52' E 008°43'0 0.0
2016-Sep-25 15:33N 53°52' E 008°43'0 0.0
2016-Sep-25 14:33N 53°52' E 008°43'0 0.0
2016-Sep-25 12:33N 53°52' E 008°43'0 0.0
2016-Sep-25 11:33N 53°52' E 008°43'0 0.0
2016-Sep-25 10:33N 53°52' E 008°43'0 0.0
2016-Sep-25 09:33N 53°52' E 008°43'0 0.2
2016-Sep-25 07:33N 53°52' E 008°43'11 3.3
2016-Sep-25 04:19N 53°52' E 009°01'0 0.0
2016-Sep-25 00:31N 53°52' E 009°01'5 2.6
2016-Sep-24 22:33N 53°54' E 009°09'5 5.0
2016-Sep-24 21:33N 53°57' E 009°14'15 7.5
2016-Sep-24 19:32N 54°10' E 009°27'8 7.7
2016-Sep-24 18:32N 54°15' E 009°37'7 7.5
2016-Sep-24 17:33N 54°21' E 009°46'6 5.5
2016-Sep-24 16:33N 54°21' E 009°55'8 4.0
2016-Sep-24 14:33N 54°22' E 010°08'13 6.4
2016-Sep-24 12:33N 54°31' E 010°24'2010.0
2016-Sep-24 10:33N 54°36' E 010°57'9 8.9
2016-Sep-24 09:33N 54°35' E 011°13'53 7.3
2016-Sep-24 02:12N 54°57' E 012°37'610.0
2016-Sep-24 01:33N 55°04' E 012°38'1010.3
2016-Sep-24 00:33N 55°14' E 012°38'26 5.3
2016-Sep-23 19:31N 55°41' E 012°38'0 0.0
2016-Sep-23 17:31N 55°41' E 012°38'0 0.0
2016-Sep-23 16:31N 55°41' E 012°38'0 0.0
2016-Sep-23 15:31N 55°41' E 012°38'0 0.0
2016-Sep-23 13:31N 55°41' E 012°38'15 3.9
2016-Sep-23 09:33N 55°25' E 012°42'3110.3
2016-Sep-23 06:29N 54°54' E 012°44'18 9.0
2016-Sep-23 04:28N 54°39' E 012°27'9 9.8
2016-Sep-23 03:31N 54°32' E 012°16'9 9.3
2016-Sep-23 02:33N 54°25' E 012°07'1010.5
2016-Sep-23 01:33N 54°25' E 011°49'10 9.8
2016-Sep-23 00:33N 54°28' E 011°33'9 9.5
2016-Sep-22 23:33N 54°33' E 011°19'29 9.7
2016-Sep-22 20:33N 54°31' E 010°28'55 6.9
2016-Sep-22 12:33N 53°57' E 009°15'42 5.3
2016-Sep-22 04:33N 53°58' E 008°03'7 6.7
2016-Sep-22 03:33N 53°51' E 008°01'27 8.8
2016-Sep-22 00:33N 53°33' E 008°33'2 2.1
2016-Sep-21 23:33N 53°31' E 008°32'0 0.0
2016-Sep-21 22:33N 53°31' E 008°32'  

Dump ship's entire track history